sensor_id;sensor_type;location;lat;lon;timestamp;P1;durP1;ratioP1;P2;durP2;ratioP2
5357;SDS011;2702;51.014;7.170;2023-04-25T00:01:32;10.33;;;5.90;;
5357;SDS011;2702;51.014;7.170;2023-04-25T00:04:01;8.23;;;5.40;;
5357;SDS011;2702;51.014;7.170;2023-04-25T00:06:28;8.40;;;5.00;;
5357;SDS011;2702;51.014;7.170;2023-04-25T00:08:55;8.23;;;4.70;;
5357;SDS011;2702;51.014;7.170;2023-04-25T00:11:22;8.07;;;5.00;;
5357;SDS011;2702;51.014;7.170;2023-04-25T00:13:48;10.50;;;4.60;;
5357;SDS011;2702;51.014;7.170;2023-04-25T00:16:15;11.20;;;4.50;;
5357;SDS011;2702;51.014;7.170;2023-04-25T00:18:42;10.40;;;5.43;;
5357;SDS011;2702;51.014;7.170;2023-04-25T00:21:08;7.43;;;4.67;;
5357;SDS011;2702;51.014;7.170;2023-04-25T00:23:35;11.13;;;6.57;;
5357;SDS011;2702;51.014;7.170;2023-04-25T00:26:01;11.13;;;5.77;;
5357;SDS011;2702;51.014;7.170;2023-04-25T00:28:28;11.80;;;5.53;;
5357;SDS011;2702;51.014;7.170;2023-04-25T00:30:54;14.53;;;5.20;;
5357;SDS011;2702;51.014;7.170;2023-04-25T00:33:20;13.90;;;5.43;;
5357;SDS011;2702;51.014;7.170;2023-04-25T00:35:46;8.53;;;4.90;;
5357;SDS011;2702;51.014;7.170;2023-04-25T00:38:12;10.87;;;5.40;;
5357;SDS011;2702;51.014;7.170;2023-04-25T00:40:37;10.17;;;4.93;;
5357;SDS011;2702;51.014;7.170;2023-04-25T00:43:03;9.53;;;5.63;;
5357;SDS011;2702;51.014;7.170;2023-04-25T00:45:30;11.30;;;5.80;;
5357;SDS011;2702;51.014;7.170;2023-04-25T00:47:55;11.20;;;5.47;;
5357;SDS011;2702;51.014;7.170;2023-04-25T00:50:22;9.37;;;5.37;;
5357;SDS011;2702;51.014;7.170;2023-04-25T00:52:49;7.27;;;4.90;;
5357;SDS011;2702;51.014;7.170;2023-04-25T00:55:14;12.20;;;6.30;;
5357;SDS011;2702;51.014;7.170;2023-04-25T00:57:41;9.63;;;5.33;;
5357;SDS011;2702;51.014;7.170;2023-04-25T01:00:07;12.77;;;5.70;;
5357;SDS011;2702;51.014;7.170;2023-04-25T01:02:35;11.17;;;5.37;;
5357;SDS011;2702;51.014;7.170;2023-04-25T01:05:02;12.07;;;5.27;;
5357;SDS011;2702;51.014;7.170;2023-04-25T01:07:28;13.60;;;5.53;;
5357;SDS011;2702;51.014;7.170;2023-04-25T01:09:55;9.50;;;4.70;;
5357;SDS011;2702;51.014;7.170;2023-04-25T01:12:23;12.60;;;5.80;;
5357;SDS011;2702;51.014;7.170;2023-04-25T01:14:49;11.30;;;5.47;;
5357;SDS011;2702;51.014;7.170;2023-04-25T01:17:15;10.60;;;5.57;;
5357;SDS011;2702;51.014;7.170;2023-04-25T01:19:42;7.37;;;6.07;;
5357;SDS011;2702;51.014;7.170;2023-04-25T01:22:09;10.87;;;5.80;;
5357;SDS011;2702;51.014;7.170;2023-04-25T01:24:35;14.70;;;5.90;;
5357;SDS011;2702;51.014;7.170;2023-04-25T01:27:02;12.60;;;7.00;;
5357;SDS011;2702;51.014;7.170;2023-04-25T01:29:29;9.37;;;5.67;;
5357;SDS011;2702;51.014;7.170;2023-04-25T01:31:56;9.30;;;5.53;;
5357;SDS011;2702;51.014;7.170;2023-04-25T01:34:23;6.77;;;5.17;;
5357;SDS011;2702;51.014;7.170;2023-04-25T01:36:51;11.43;;;5.77;;
5357;SDS011;2702;51.014;7.170;2023-04-25T01:39:17;9.50;;;5.50;;
5357;SDS011;2702;51.014;7.170;2023-04-25T01:41:44;8.60;;;5.10;;
5357;SDS011;2702;51.014;7.170;2023-04-25T01:44:11;7.93;;;5.00;;
5357;SDS011;2702;51.014;7.170;2023-04-25T01:46:37;9.10;;;4.83;;
5357;SDS011;2702;51.014;7.170;2023-04-25T01:49:03;9.60;;;5.60;;
5357;SDS011;2702;51.014;7.170;2023-04-25T01:51:29;10.23;;;6.20;;
5357;SDS011;2702;51.014;7.170;2023-04-25T01:53:57;10.73;;;5.40;;
5357;SDS011;2702;51.014;7.170;2023-04-25T01:56:23;12.40;;;5.33;;
5357;SDS011;2702;51.014;7.170;2023-04-25T01:58:50;12.03;;;5.40;;
5357;SDS011;2702;51.014;7.170;2023-04-25T02:01:16;8.20;;;5.23;;
5357;SDS011;2702;51.014;7.170;2023-04-25T02:03:42;9.90;;;5.63;;
5357;SDS011;2702;51.014;7.170;2023-04-25T02:06:09;9.30;;;5.73;;
5357;SDS011;2702;51.014;7.170;2023-04-25T02:08:35;11.60;;;5.10;;
5357;SDS011;2702;51.014;7.170;2023-04-25T02:11:02;8.40;;;5.30;;
5357;SDS011;2702;51.014;7.170;2023-04-25T02:13:28;9.00;;;5.10;;
5357;SDS011;2702;51.014;7.170;2023-04-25T02:15:54;8.10;;;5.07;;
5357;SDS011;2702;51.014;7.170;2023-04-25T02:18:20;9.07;;;4.53;;
5357;SDS011;2702;51.014;7.170;2023-04-25T02:20:46;8.20;;;4.70;;
5357;SDS011;2702;51.014;7.170;2023-04-25T02:23:12;9.47;;;4.40;;
5357;SDS011;2702;51.014;7.170;2023-04-25T02:25:38;8.13;;;5.40;;
5357;SDS011;2702;51.014;7.170;2023-04-25T02:28:04;9.43;;;4.87;;
5357;SDS011;2702;51.014;7.170;2023-04-25T02:30:30;11.80;;;6.27;;
5357;SDS011;2702;51.014;7.170;2023-04-25T02:32:56;11.07;;;6.17;;
5357;SDS011;2702;51.014;7.170;2023-04-25T02:35:22;7.93;;;4.77;;
5357;SDS011;2702;51.014;7.170;2023-04-25T02:37:48;11.90;;;5.37;;
5357;SDS011;2702;51.014;7.170;2023-04-25T02:40:13;8.97;;;5.17;;
5357;SDS011;2702;51.014;7.170;2023-04-25T02:42:39;8.83;;;5.37;;
5357;SDS011;2702;51.014;7.170;2023-04-25T02:45:05;11.00;;;4.57;;
5357;SDS011;2702;51.014;7.170;2023-04-25T02:47:32;8.20;;;4.43;;
5357;SDS011;2702;51.014;7.170;2023-04-25T02:49:58;8.50;;;4.67;;
5357;SDS011;2702;51.014;7.170;2023-04-25T02:52:24;10.80;;;5.13;;
5357;SDS011;2702;51.014;7.170;2023-04-25T02:54:50;11.80;;;4.60;;
5357;SDS011;2702;51.014;7.170;2023-04-25T02:57:16;11.23;;;5.60;;
5357;SDS011;2702;51.014;7.170;2023-04-25T02:59:42;8.40;;;4.83;;
5357;SDS011;2702;51.014;7.170;2023-04-25T03:02:08;10.30;;;4.77;;
5357;SDS011;2702;51.014;7.170;2023-04-25T03:04:35;8.10;;;5.17;;
5357;SDS011;2702;51.014;7.170;2023-04-25T03:07:01;13.00;;;5.97;;
5357;SDS011;2702;51.014;7.170;2023-04-25T03:09:27;8.80;;;5.20;;
5357;SDS011;2702;51.014;7.170;2023-04-25T03:11:53;11.33;;;5.30;;
5357;SDS011;2702;51.014;7.170;2023-04-25T03:14:18;8.50;;;5.87;;
5357;SDS011;2702;51.014;7.170;2023-04-25T03:16:44;9.17;;;5.10;;
5357;SDS011;2702;51.014;7.170;2023-04-25T03:19:10;10.03;;;4.83;;
5357;SDS011;2702;51.014;7.170;2023-04-25T03:21:36;10.40;;;5.43;;
5357;SDS011;2702;51.014;7.170;2023-04-25T03:24:03;8.23;;;4.73;;
5357;SDS011;2702;51.014;7.170;2023-04-25T03:26:30;8.07;;;5.30;;
5357;SDS011;2702;51.014;7.170;2023-04-25T03:28:56;12.63;;;5.33;;
5357;SDS011;2702;51.014;7.170;2023-04-25T03:31:22;9.00;;;5.17;;
5357;SDS011;2702;51.014;7.170;2023-04-25T03:33:48;10.30;;;4.73;;
5357;SDS011;2702;51.014;7.170;2023-04-25T03:36:14;9.97;;;5.20;;
5357;SDS011;2702;51.014;7.170;2023-04-25T03:38:40;7.40;;;5.50;;
5357;SDS011;2702;51.014;7.170;2023-04-25T03:41:06;6.80;;;4.47;;
5357;SDS011;2702;51.014;7.170;2023-04-25T03:43:32;12.13;;;5.20;;
5357;SDS011;2702;51.014;7.170;2023-04-25T03:45:58;9.77;;;5.20;;
5357;SDS011;2702;51.014;7.170;2023-04-25T03:48:25;10.67;;;5.43;;
5357;SDS011;2702;51.014;7.170;2023-04-25T03:50:52;7.80;;;4.53;;
5357;SDS011;2702;51.014;7.170;2023-04-25T03:53:18;10.80;;;5.10;;
5357;SDS011;2702;51.014;7.170;2023-04-25T03:55:44;7.43;;;5.30;;
5357;SDS011;2702;51.014;7.170;2023-04-25T03:58:10;8.50;;;4.93;;
5357;SDS011;2702;51.014;7.170;2023-04-25T04:00:36;8.93;;;5.50;;
5357;SDS011;2702;51.014;7.170;2023-04-25T04:03:02;9.90;;;5.60;;
5357;SDS011;2702;51.014;7.170;2023-04-25T04:05:28;7.00;;;4.67;;
5357;SDS011;2702;51.014;7.170;2023-04-25T04:07:54;9.37;;;5.50;;
5357;SDS011;2702;51.014;7.170;2023-04-25T04:10:20;10.20;;;5.50;;
5357;SDS011;2702;51.014;7.170;2023-04-25T04:12:47;7.83;;;4.87;;
5357;SDS011;2702;51.014;7.170;2023-04-25T04:15:12;8.00;;;5.30;;
5357;SDS011;2702;51.014;7.170;2023-04-25T04:17:39;9.90;;;4.87;;
5357;SDS011;2702;51.014;7.170;2023-04-25T04:20:06;7.80;;;4.93;;
5357;SDS011;2702;51.014;7.170;2023-04-25T04:22:33;8.97;;;5.00;;
5357;SDS011;2702;51.014;7.170;2023-04-25T04:25:00;5.87;;;5.07;;
5357;SDS011;2702;51.014;7.170;2023-04-25T04:27:26;8.03;;;5.70;;
5357;SDS011;2702;51.014;7.170;2023-04-25T04:29:53;10.87;;;4.77;;
5357;SDS011;2702;51.014;7.170;2023-04-25T04:32:19;6.07;;;4.27;;
5357;SDS011;2702;51.014;7.170;2023-04-25T04:34:45;10.37;;;5.47;;
5357;SDS011;2702;51.014;7.170;2023-04-25T04:37:12;10.60;;;6.17;;
5357;SDS011;2702;51.014;7.170;2023-04-25T04:39:38;8.00;;;5.17;;
5357;SDS011;2702;51.014;7.170;2023-04-25T04:42:04;10.30;;;6.53;;
5357;SDS011;2702;51.014;7.170;2023-04-25T04:44:30;7.40;;;5.17;;
5357;SDS011;2702;51.014;7.170;2023-04-25T04:46:59;13.03;;;7.10;;
5357;SDS011;2702;51.014;7.170;2023-04-25T04:49:25;10.70;;;6.00;;
5357;SDS011;2702;51.014;7.170;2023-04-25T04:51:51;9.97;;;5.50;;
5357;SDS011;2702;51.014;7.170;2023-04-25T04:54:17;13.23;;;7.30;;
5357;SDS011;2702;51.014;7.170;2023-04-25T04:56:43;8.37;;;5.73;;
5357;SDS011;2702;51.014;7.170;2023-04-25T04:59:09;11.70;;;6.10;;
5357;SDS011;2702;51.014;7.170;2023-04-25T05:01:36;12.33;;;6.77;;
5357;SDS011;2702;51.014;7.170;2023-04-25T05:04:02;8.80;;;5.90;;
5357;SDS011;2702;51.014;7.170;2023-04-25T05:06:29;13.17;;;7.20;;
5357;SDS011;2702;51.014;7.170;2023-04-25T05:08:56;12.30;;;6.50;;
5357;SDS011;2702;51.014;7.170;2023-04-25T05:11:23;11.60;;;6.80;;
5357;SDS011;2702;51.014;7.170;2023-04-25T05:13:53;17.37;;;7.40;;
5357;SDS011;2702;51.014;7.170;2023-04-25T05:16:19;16.87;;;9.80;;
5357;SDS011;2702;51.014;7.170;2023-04-25T05:18:46;16.30;;;8.00;;
5357;SDS011;2702;51.014;7.170;2023-04-25T05:21:12;15.57;;;8.93;;
5357;SDS011;2702;51.014;7.170;2023-04-25T05:23:38;15.87;;;8.70;;
5357;SDS011;2702;51.014;7.170;2023-04-25T05:26:04;15.60;;;9.60;;
5357;SDS011;2702;51.014;7.170;2023-04-25T05:28:30;19.17;;;10.83;;
5357;SDS011;2702;51.014;7.170;2023-04-25T05:30:56;14.90;;;10.33;;
5357;SDS011;2702;51.014;7.170;2023-04-25T05:33:22;22.80;;;11.67;;
5357;SDS011;2702;51.014;7.170;2023-04-25T05:35:48;15.70;;;10.20;;
5357;SDS011;2702;51.014;7.170;2023-04-25T05:38:15;23.40;;;9.60;;
5357;SDS011;2702;51.014;7.170;2023-04-25T05:40:41;13.10;;;7.70;;
5357;SDS011;2702;51.014;7.170;2023-04-25T05:43:07;15.30;;;7.70;;
5357;SDS011;2702;51.014;7.170;2023-04-25T05:45:33;12.83;;;8.40;;
5357;SDS011;2702;51.014;7.170;2023-04-25T05:47:59;12.43;;;7.47;;
5357;SDS011;2702;51.014;7.170;2023-04-25T05:50:25;16.77;;;7.00;;
5357;SDS011;2702;51.014;7.170;2023-04-25T05:52:51;15.83;;;7.60;;
5357;SDS011;2702;51.014;7.170;2023-04-25T05:55:17;18.43;;;6.90;;
5357;SDS011;2702;51.014;7.170;2023-04-25T05:57:43;11.50;;;7.23;;
5357;SDS011;2702;51.014;7.170;2023-04-25T06:00:11;17.57;;;6.67;;
5357;SDS011;2702;51.014;7.170;2023-04-25T06:02:38;13.77;;;6.93;;
5357;SDS011;2702;51.014;7.170;2023-04-25T06:05:05;18.63;;;7.83;;
5357;SDS011;2702;51.014;7.170;2023-04-25T06:07:31;10.00;;;6.33;;
5357;SDS011;2702;51.014;7.170;2023-04-25T06:09:56;15.87;;;7.03;;
5357;SDS011;2702;51.014;7.170;2023-04-25T06:12:22;11.50;;;6.33;;
5357;SDS011;2702;51.014;7.170;2023-04-25T06:14:48;15.63;;;7.50;;
5357;SDS011;2702;51.014;7.170;2023-04-25T06:17:14;11.90;;;6.20;;
5357;SDS011;2702;51.014;7.170;2023-04-25T06:19:40;16.20;;;6.93;;
5357;SDS011;2702;51.014;7.170;2023-04-25T06:22:06;12.73;;;6.30;;
5357;SDS011;2702;51.014;7.170;2023-04-25T06:24:33;16.33;;;6.80;;
5357;SDS011;2702;51.014;7.170;2023-04-25T06:26:59;12.30;;;6.03;;
5357;SDS011;2702;51.014;7.170;2023-04-25T06:29:25;10.47;;;6.93;;
5357;SDS011;2702;51.014;7.170;2023-04-25T06:31:51;14.03;;;7.10;;
5357;SDS011;2702;51.014;7.170;2023-04-25T06:34:17;13.43;;;6.13;;
5357;SDS011;2702;51.014;7.170;2023-04-25T06:36:42;12.37;;;6.20;;
5357;SDS011;2702;51.014;7.170;2023-04-25T06:39:09;18.00;;;6.43;;
5357;SDS011;2702;51.014;7.170;2023-04-25T06:41:36;14.30;;;6.30;;
5357;SDS011;2702;51.014;7.170;2023-04-25T06:44:02;17.47;;;8.00;;
5357;SDS011;2702;51.014;7.170;2023-04-25T06:46:28;11.53;;;6.47;;
5357;SDS011;2702;51.014;7.170;2023-04-25T06:48:54;15.63;;;6.60;;
5357;SDS011;2702;51.014;7.170;2023-04-25T06:51:20;14.93;;;5.70;;
5357;SDS011;2702;51.014;7.170;2023-04-25T06:53:46;12.63;;;6.60;;
5357;SDS011;2702;51.014;7.170;2023-04-25T06:56:12;11.70;;;5.97;;
5357;SDS011;2702;51.014;7.170;2023-04-25T06:58:38;12.33;;;5.70;;
5357;SDS011;2702;51.014;7.170;2023-04-25T07:01:03;14.67;;;6.73;;
5357;SDS011;2702;51.014;7.170;2023-04-25T07:03:29;9.47;;;5.57;;
5357;SDS011;2702;51.014;7.170;2023-04-25T07:05:55;7.27;;;4.70;;
5357;SDS011;2702;51.014;7.170;2023-04-25T07:08:21;13.43;;;5.17;;
5357;SDS011;2702;51.014;7.170;2023-04-25T07:10:47;7.37;;;4.80;;
5357;SDS011;2702;51.014;7.170;2023-04-25T07:13:13;13.10;;;5.40;;
5357;SDS011;2702;51.014;7.170;2023-04-25T07:15:39;5.37;;;4.50;;
5357;SDS011;2702;51.014;7.170;2023-04-25T07:18:05;10.37;;;4.53;;
5357;SDS011;2702;51.014;7.170;2023-04-25T07:20:31;10.63;;;5.17;;
5357;SDS011;2702;51.014;7.170;2023-04-25T07:22:57;9.53;;;4.27;;
5357;SDS011;2702;51.014;7.170;2023-04-25T07:25:23;10.20;;;4.37;;
5357;SDS011;2702;51.014;7.170;2023-04-25T07:27:49;10.90;;;4.67;;
5357;SDS011;2702;51.014;7.170;2023-04-25T07:30:15;9.70;;;4.60;;
5357;SDS011;2702;51.014;7.170;2023-04-25T07:32:41;9.30;;;4.97;;
5357;SDS011;2702;51.014;7.170;2023-04-25T07:35:07;12.23;;;4.10;;
5357;SDS011;2702;51.014;7.170;2023-04-25T07:37:33;10.67;;;4.77;;
5357;SDS011;2702;51.014;7.170;2023-04-25T07:40:00;10.40;;;5.10;;
5357;SDS011;2702;51.014;7.170;2023-04-25T07:42:29;7.73;;;4.13;;
5357;SDS011;2702;51.014;7.170;2023-04-25T07:44:55;9.87;;;4.90;;
5357;SDS011;2702;51.014;7.170;2023-04-25T07:47:21;7.13;;;4.30;;
5357;SDS011;2702;51.014;7.170;2023-04-25T07:49:47;10.60;;;4.33;;
5357;SDS011;2702;51.014;7.170;2023-04-25T07:52:13;7.90;;;4.20;;
5357;SDS011;2702;51.014;7.170;2023-04-25T07:54:39;11.80;;;4.40;;
5357;SDS011;2702;51.014;7.170;2023-04-25T07:57:05;8.27;;;4.60;;
5357;SDS011;2702;51.014;7.170;2023-04-25T07:59:33;8.60;;;4.43;;
5357;SDS011;2702;51.014;7.170;2023-04-25T08:02:00;9.40;;;5.30;;
5357;SDS011;2702;51.014;7.170;2023-04-25T08:04:27;8.43;;;4.20;;
5357;SDS011;2702;51.014;7.170;2023-04-25T08:06:53;11.97;;;4.13;;
5357;SDS011;2702;51.014;7.170;2023-04-25T08:09:20;6.93;;;3.10;;
5357;SDS011;2702;51.014;7.170;2023-04-25T08:11:46;7.33;;;4.20;;
5357;SDS011;2702;51.014;7.170;2023-04-25T08:14:12;5.40;;;3.10;;
5357;SDS011;2702;51.014;7.170;2023-04-25T08:16:38;11.67;;;4.13;;
5357;SDS011;2702;51.014;7.170;2023-04-25T08:19:05;5.23;;;2.77;;
5357;SDS011;2702;51.014;7.170;2023-04-25T08:21:31;6.43;;;2.70;;
5357;SDS011;2702;51.014;7.170;2023-04-25T08:23:57;7.97;;;2.80;;
5357;SDS011;2702;51.014;7.170;2023-04-25T08:26:24;6.77;;;3.50;;
5357;SDS011;2702;51.014;7.170;2023-04-25T08:28:50;7.50;;;2.90;;
5357;SDS011;2702;51.014;7.170;2023-04-25T08:31:16;7.13;;;3.80;;
5357;SDS011;2702;51.014;7.170;2023-04-25T08:33:42;5.33;;;3.40;;
5357;SDS011;2702;51.014;7.170;2023-04-25T08:36:09;5.17;;;3.10;;
5357;SDS011;2702;51.014;7.170;2023-04-25T08:38:35;7.80;;;3.20;;
5357;SDS011;2702;51.014;7.170;2023-04-25T08:41:02;5.50;;;3.13;;
5357;SDS011;2702;51.014;7.170;2023-04-25T08:43:30;5.50;;;3.17;;
5357;SDS011;2702;51.014;7.170;2023-04-25T08:45:59;7.10;;;3.23;;
5357;SDS011;2702;51.014;7.170;2023-04-25T08:48:27;8.60;;;3.40;;
5357;SDS011;2702;51.014;7.170;2023-04-25T08:50:55;4.80;;;3.27;;
5357;SDS011;2702;51.014;7.170;2023-04-25T08:53:25;6.90;;;4.53;;
5357;SDS011;2702;51.014;7.170;2023-04-25T08:55:56;9.67;;;3.93;;
5357;SDS011;2702;51.014;7.170;2023-04-25T08:58:23;6.10;;;3.70;;
5357;SDS011;2702;51.014;7.170;2023-04-25T09:00:50;12.10;;;4.03;;
5357;SDS011;2702;51.014;7.170;2023-04-25T09:03:18;8.67;;;4.60;;
5357;SDS011;2702;51.014;7.170;2023-04-25T09:05:44;6.23;;;4.03;;
5357;SDS011;2702;51.014;7.170;2023-04-25T09:08:10;9.30;;;4.60;;
5357;SDS011;2702;51.014;7.170;2023-04-25T09:10:36;10.23;;;4.53;;
5357;SDS011;2702;51.014;7.170;2023-04-25T09:13:04;6.63;;;4.50;;
5357;SDS011;2702;51.014;7.170;2023-04-25T09:15:51;6.30;;;4.10;;
5357;SDS011;2702;51.014;7.170;2023-04-25T09:18:24;6.33;;;4.10;;
5357;SDS011;2702;51.014;7.170;2023-04-25T09:20:55;7.40;;;3.90;;
5357;SDS011;2702;51.014;7.170;2023-04-25T09:23:23;6.37;;;3.93;;
5357;SDS011;2702;51.014;7.170;2023-04-25T09:25:52;9.93;;;4.13;;
5357;SDS011;2702;51.014;7.170;2023-04-25T09:28:22;9.43;;;4.10;;
5357;SDS011;2702;51.014;7.170;2023-04-25T09:30:56;10.90;;;4.97;;
5357;SDS011;2702;51.014;7.170;2023-04-25T09:33:29;6.40;;;3.37;;
5357;SDS011;2702;51.014;7.170;2023-04-25T09:36:08;6.73;;;3.57;;
5357;SDS011;2702;51.014;7.170;2023-04-25T09:38:45;9.43;;;3.73;;
5357;SDS011;2702;51.014;7.170;2023-04-25T09:41:12;6.93;;;3.10;;
5357;SDS011;2702;51.014;7.170;2023-04-25T09:43:38;8.27;;;2.93;;
5357;SDS011;2702;51.014;7.170;2023-04-25T09:46:08;3.60;;;2.97;;
5357;SDS011;2702;51.014;7.170;2023-04-25T09:48:36;6.43;;;3.60;;
5357;SDS011;2702;51.014;7.170;2023-04-25T09:51:09;5.30;;;3.20;;
5357;SDS011;2702;51.014;7.170;2023-04-25T09:53:40;6.23;;;3.00;;
5357;SDS011;2702;51.014;7.170;2023-04-25T09:56:07;3.60;;;2.87;;
5357;SDS011;2702;51.014;7.170;2023-04-25T09:58:36;7.90;;;3.47;;
5357;SDS011;2702;51.014;7.170;2023-04-25T10:01:07;6.50;;;3.17;;
5357;SDS011;2702;51.014;7.170;2023-04-25T10:03:36;5.10;;;3.20;;
5357;SDS011;2702;51.014;7.170;2023-04-25T10:06:08;7.23;;;3.93;;
5357;SDS011;2702;51.014;7.170;2023-04-25T10:08:38;7.80;;;3.27;;
5357;SDS011;2702;51.014;7.170;2023-04-25T10:11:04;7.37;;;3.40;;
5357;SDS011;2702;51.014;7.170;2023-04-25T10:13:34;3.67;;;2.70;;
5357;SDS011;2702;51.014;7.170;2023-04-25T10:16:01;4.63;;;3.07;;
5357;SDS011;2702;51.014;7.170;2023-04-25T10:18:29;4.30;;;2.37;;
5357;SDS011;2702;51.014;7.170;2023-04-25T10:21:00;4.33;;;2.50;;
5357;SDS011;2702;51.014;7.170;2023-04-25T10:23:29;6.43;;;2.93;;
5357;SDS011;2702;51.014;7.170;2023-04-25T10:25:57;4.03;;;2.70;;
5357;SDS011;2702;51.014;7.170;2023-04-25T10:28:25;3.07;;;2.40;;
5357;SDS011;2702;51.014;7.170;2023-04-25T10:30:57;7.20;;;2.60;;
5357;SDS011;2702;51.014;7.170;2023-04-25T10:33:35;5.30;;;2.80;;
5357;SDS011;2702;51.014;7.170;2023-04-25T10:36:16;6.37;;;3.00;;
5357;SDS011;2702;51.014;7.170;2023-04-25T10:38:44;4.20;;;3.00;;
5357;SDS011;2702;51.014;7.170;2023-04-25T10:41:11;4.43;;;2.87;;
5357;SDS011;2702;51.014;7.170;2023-04-25T10:43:41;4.07;;;3.07;;
5357;SDS011;2702;51.014;7.170;2023-04-25T10:48:56;4.03;;;2.83;;
5357;SDS011;2702;51.014;7.170;2023-04-25T10:51:30;5.47;;;3.07;;
5357;SDS011;2702;51.014;7.170;2023-04-25T10:53:58;4.97;;;2.93;;
5357;SDS011;2702;51.014;7.170;2023-04-25T10:56:25;6.70;;;2.57;;
5357;SDS011;2702;51.014;7.170;2023-04-25T10:59:08;3.97;;;2.30;;
5357;SDS011;2702;51.014;7.170;2023-04-25T11:01:43;7.20;;;2.07;;
5357;SDS011;2702;51.014;7.170;2023-04-25T11:04:23;3.77;;;2.27;;
5357;SDS011;2702;51.014;7.170;2023-04-25T11:09:23;3.30;;;2.00;;
5357;SDS011;2702;51.014;7.170;2023-04-25T11:11:56;2.97;;;2.27;;
5357;SDS011;2702;51.014;7.170;2023-04-25T11:14:23;6.43;;;2.30;;
5357;SDS011;2702;51.014;7.170;2023-04-25T11:16:56;3.20;;;1.93;;
5357;SDS011;2702;51.014;7.170;2023-04-25T11:19:23;3.20;;;2.00;;
5357;SDS011;2702;51.014;7.170;2023-04-25T11:21:50;4.90;;;2.27;;
5357;SDS011;2702;51.014;7.170;2023-04-25T11:24:19;6.33;;;2.07;;
5357;SDS011;2702;51.014;7.170;2023-04-25T11:26:53;4.40;;;1.50;;
5357;SDS011;2702;51.014;7.170;2023-04-25T11:29:21;3.03;;;2.03;;
5357;SDS011;2702;51.014;7.170;2023-04-25T11:31:48;3.83;;;2.20;;
5357;SDS011;2702;51.014;7.170;2023-04-25T11:34:20;4.30;;;1.90;;
5357;SDS011;2702;51.014;7.170;2023-04-25T11:36:46;2.33;;;1.70;;
5357;SDS011;2702;51.014;7.170;2023-04-25T11:39:12;4.20;;;1.70;;
5357;SDS011;2702;51.014;7.170;2023-04-25T11:41:38;3.50;;;1.77;;
5357;SDS011;2702;51.014;7.170;2023-04-25T11:44:05;4.10;;;1.87;;
5357;SDS011;2702;51.014;7.170;2023-04-25T11:46:33;8.47;;;2.53;;
5357;SDS011;2702;51.014;7.170;2023-04-25T11:49:00;3.33;;;1.60;;
5357;SDS011;2702;51.014;7.170;2023-04-25T11:51:26;2.27;;;1.90;;
5357;SDS011;2702;51.014;7.170;2023-04-25T11:53:52;4.03;;;1.50;;
5357;SDS011;2702;51.014;7.170;2023-04-25T11:56:18;3.60;;;1.50;;
5357;SDS011;2702;51.014;7.170;2023-04-25T12:01:25;4.40;;;1.70;;
5357;SDS011;2702;51.014;7.170;2023-04-25T12:03:53;2.90;;;1.47;;
5357;SDS011;2702;51.014;7.170;2023-04-25T12:06:19;2.37;;;1.43;;
5357;SDS011;2702;51.014;7.170;2023-04-25T12:09:03;5.27;;;1.40;;
5357;SDS011;2702;51.014;7.170;2023-04-25T12:11:32;2.80;;;1.53;;
5357;SDS011;2702;51.014;7.170;2023-04-25T12:14:06;1.87;;;1.30;;
5357;SDS011;2702;51.014;7.170;2023-04-25T12:16:41;2.63;;;1.50;;
5357;SDS011;2702;51.014;7.170;2023-04-25T12:19:15;3.13;;;1.40;;
5357;SDS011;2702;51.014;7.170;2023-04-25T12:21:42;3.13;;;1.93;;
5357;SDS011;2702;51.014;7.170;2023-04-25T12:24:09;2.37;;;1.60;;
5357;SDS011;2702;51.014;7.170;2023-04-25T12:29:35;2.00;;;1.40;;
5357;SDS011;2702;51.014;7.170;2023-04-25T12:32:01;2.03;;;1.40;;
5357;SDS011;2702;51.014;7.170;2023-04-25T12:34:27;2.87;;;1.50;;
5357;SDS011;2702;51.014;7.170;2023-04-25T12:36:53;4.80;;;2.07;;
5357;SDS011;2702;51.014;7.170;2023-04-25T12:39:23;1.70;;;1.60;;
5357;SDS011;2702;51.014;7.170;2023-04-25T12:41:50;4.77;;;1.87;;
5357;SDS011;2702;51.014;7.170;2023-04-25T12:44:20;3.33;;;1.83;;
5357;SDS011;2702;51.014;7.170;2023-04-25T12:46:47;3.30;;;1.40;;
5357;SDS011;2702;51.014;7.170;2023-04-25T12:49:14;1.63;;;1.50;;
5357;SDS011;2702;51.014;7.170;2023-04-25T12:51:40;3.53;;;1.60;;
5357;SDS011;2702;51.014;7.170;2023-04-25T12:54:06;4.60;;;2.00;;
5357;SDS011;2702;51.014;7.170;2023-04-25T12:56:33;4.70;;;2.73;;
5357;SDS011;2702;51.014;7.170;2023-04-25T12:59:01;4.77;;;2.27;;
5357;SDS011;2702;51.014;7.170;2023-04-25T13:01:30;7.33;;;2.17;;
5357;SDS011;2702;51.014;7.170;2023-04-25T13:03:57;4.57;;;2.20;;
5357;SDS011;2702;51.014;7.170;2023-04-25T13:06:22;5.70;;;2.30;;
5357;SDS011;2702;51.014;7.170;2023-04-25T13:08:49;6.27;;;2.17;;
5357;SDS011;2702;51.014;7.170;2023-04-25T13:11:15;3.53;;;2.50;;
5357;SDS011;2702;51.014;7.170;2023-04-25T13:13:41;5.73;;;1.90;;
5357;SDS011;2702;51.014;7.170;2023-04-25T13:16:07;3.77;;;2.17;;
5357;SDS011;2702;51.014;7.170;2023-04-25T13:18:34;5.07;;;2.00;;
5357;SDS011;2702;51.014;7.170;2023-04-25T13:21:00;5.60;;;2.47;;
5357;SDS011;2702;51.014;7.170;2023-04-25T13:23:26;6.30;;;2.70;;
5357;SDS011;2702;51.014;7.170;2023-04-25T13:25:54;5.63;;;2.83;;
5357;SDS011;2702;51.014;7.170;2023-04-25T13:28:23;3.77;;;2.57;;
5357;SDS011;2702;51.014;7.170;2023-04-25T13:30:49;5.33;;;2.10;;
5357;SDS011;2702;51.014;7.170;2023-04-25T13:33:16;3.47;;;2.20;;
5357;SDS011;2702;51.014;7.170;2023-04-25T13:35:43;3.97;;;2.37;;
5357;SDS011;2702;51.014;7.170;2023-04-25T13:38:12;5.00;;;2.50;;
5357;SDS011;2702;51.014;7.170;2023-04-25T13:40:38;5.20;;;2.57;;
5357;SDS011;2702;51.014;7.170;2023-04-25T13:43:04;3.23;;;1.90;;
5357;SDS011;2702;51.014;7.170;2023-04-25T13:45:31;2.83;;;2.43;;
5357;SDS011;2702;51.014;7.170;2023-04-25T13:47:57;2.10;;;2.00;;
5357;SDS011;2702;51.014;7.170;2023-04-25T13:50:23;3.30;;;2.10;;
5357;SDS011;2702;51.014;7.170;2023-04-25T13:52:50;1.87;;;1.77;;
5357;SDS011;2702;51.014;7.170;2023-04-25T13:55:16;2.27;;;2.07;;
5357;SDS011;2702;51.014;7.170;2023-04-25T13:57:42;3.30;;;2.27;;
5357;SDS011;2702;51.014;7.170;2023-04-25T14:00:08;5.77;;;2.53;;
5357;SDS011;2702;51.014;7.170;2023-04-25T14:02:35;4.53;;;2.93;;
5357;SDS011;2702;51.014;7.170;2023-04-25T14:05:02;3.47;;;2.60;;
5357;SDS011;2702;51.014;7.170;2023-04-25T14:07:29;2.73;;;2.13;;
5357;SDS011;2702;51.014;7.170;2023-04-25T14:09:55;2.40;;;2.20;;
5357;SDS011;2702;51.014;7.170;2023-04-25T14:12:22;4.50;;;2.10;;
5357;SDS011;2702;51.014;7.170;2023-04-25T14:14:49;2.90;;;2.20;;
5357;SDS011;2702;51.014;7.170;2023-04-25T14:17:14;5.93;;;2.07;;
5357;SDS011;2702;51.014;7.170;2023-04-25T14:19:40;4.77;;;2.47;;
5357;SDS011;2702;51.014;7.170;2023-04-25T14:22:10;3.57;;;2.30;;
5357;SDS011;2702;51.014;7.170;2023-04-25T14:24:36;2.50;;;2.03;;
5357;SDS011;2702;51.014;7.170;2023-04-25T14:27:02;4.77;;;2.30;;
5357;SDS011;2702;51.014;7.170;2023-04-25T14:29:29;2.87;;;2.30;;
5357;SDS011;2702;51.014;7.170;2023-04-25T14:31:55;4.70;;;2.90;;
5357;SDS011;2702;51.014;7.170;2023-04-25T14:34:22;3.43;;;2.90;;
5357;SDS011;2702;51.014;7.170;2023-04-25T14:36:48;4.13;;;2.40;;
5357;SDS011;2702;51.014;7.170;2023-04-25T14:39:14;5.03;;;2.83;;
5357;SDS011;2702;51.014;7.170;2023-04-25T14:41:41;6.20;;;2.73;;
5357;SDS011;2702;51.014;7.170;2023-04-25T14:44:07;2.80;;;2.20;;
5357;SDS011;2702;51.014;7.170;2023-04-25T14:46:33;2.10;;;1.90;;
5357;SDS011;2702;51.014;7.170;2023-04-25T14:49:00;3.60;;;2.40;;
5357;SDS011;2702;51.014;7.170;2023-04-25T14:51:38;3.40;;;2.33;;
5357;SDS011;2702;51.014;7.170;2023-04-25T14:57:44;4.67;;;2.17;;
5357;SDS011;2702;51.014;7.170;2023-04-25T15:00:11;2.90;;;1.70;;
5357;SDS011;2702;51.014;7.170;2023-04-25T15:02:40;3.20;;;1.83;;
5357;SDS011;2702;51.014;7.170;2023-04-25T15:05:06;2.73;;;2.10;;
5357;SDS011;2702;51.014;7.170;2023-04-25T15:07:33;5.87;;;2.57;;
5357;SDS011;2702;51.014;7.170;2023-04-25T15:10:00;4.80;;;2.10;;
5357;SDS011;2702;51.014;7.170;2023-04-25T15:12:26;3.10;;;1.80;;
5357;SDS011;2702;51.014;7.170;2023-04-25T15:14:53;4.63;;;2.03;;
5357;SDS011;2702;51.014;7.170;2023-04-25T15:17:21;3.67;;;1.83;;
5357;SDS011;2702;51.014;7.170;2023-04-25T15:19:47;2.07;;;1.70;;
5357;SDS011;2702;51.014;7.170;2023-04-25T15:22:12;2.77;;;1.80;;
5357;SDS011;2702;51.014;7.170;2023-04-25T15:24:38;2.40;;;1.97;;